Terminal Aerodrome Forecast
Issued by NWS

Home | Current Version | Previous Version | Text Only | Print | Product List | Glossary On
Versions: 1 2 3 4 5 6 7 8 9 10 11 12 13 14 15 16 17 18 19 20 21 22 23 24 25 26
000
FTUS41 KBOX 181725
TAFBED
TAF
KBED 181725Z 1818/1918 VRB03KT P6SM OVC025
     FM182100 00000KT P6SM OVC015
     FM190000 00000KT P6SM VCSH OVC010
     FM190200 VRB03KT 4SM BR OVC040
     FM190800 VRB03KT P6SM BKN060=

USA.gov is the U.S. government's official web portal to all federal, state and local government web resources and services.